Time;durP1;ratioP1;P1;durP2;ratioP2;P2;SDS_P1;SDS_P2;PMS_P1;PMS_P2;Temp;Humidity;BMP_temperature;BMP_pressure;BME280_temperature;BME280_humidity;BME280_pressure;Samples;Min_cycle;Max_cycle;Signal;HPM_P1;HPM_P2
2021/12/26 00:00:47;;;;;;;10.30;6.60;;;9.00;99.90;;;;;;5051814;28;20169;-58
2021/12/26 00:03:13;;;;;;;10.93;7.00;;;9.00;99.90;;;;;;5051821;28;20165;-57
2021/12/26 00:05:39;;;;;;;12.80;7.27;;;9.00;99.90;;;;;;5051726;28;20269;-58
2021/12/26 00:08:05;;;;;;;13.27;7.40;;;9.00;99.90;;;;;;5051830;28;20240;-57
2021/12/26 00:10:32;;;;;;;12.40;7.90;;;9.00;99.90;;;;;;5051523;28;20212;-57
2021/12/26 00:12:58;;;;;;;12.17;7.80;;;9.00;99.90;;;;;;5051132;28;20166;-57
2021/12/26 00:15:24;;;;;;;14.67;8.23;;;9.00;99.90;;;;;;5051532;28;20191;-57
2021/12/26 00:17:50;;;;;;;13.70;8.07;;;9.00;99.90;;;;;;5051451;28;20276;-57
2021/12/26 00:20:17;;;;;;;13.50;8.50;;;9.00;99.90;;;;;;5051370;28;20252;-58
2021/12/26 00:22:43;;;;;;;14.00;8.53;;;9.00;99.90;;;;;;5051446;28;20172;-57
2021/12/26 00:25:10;;;;;;;16.00;9.63;;;9.00;99.90;;;;;;5051402;28;20556;-57
2021/12/26 00:27:37;;;;;;;16.67;10.27;;;9.00;99.90;;;;;;5051419;28;20177;-57
2021/12/26 00:30:05;;;;;;;15.90;10.03;;;9.00;99.90;;;;;;5051002;28;20368;-58
2021/12/26 00:32:31;;;;;;;17.00;10.53;;;9.00;99.90;;;;;;5051197;28;20165;-58
2021/12/26 00:34:57;;;;;;;20.20;10.80;;;9.00;99.90;;;;;;5051159;28;20214;-58
2021/12/26 00:37:22;;;;;;;18.10;11.40;;;9.00;99.90;;;;;;5051322;28;20165;-58
2021/12/26 00:39:48;;;;;;;19.53;11.43;;;9.00;99.90;;;;;;5048593;28;20638;-58
2021/12/26 00:42:14;;;;;;;18.00;11.53;;;9.00;99.90;;;;;;5051079;28;20180;-58
2021/12/26 00:44:40;;;;;;;22.10;12.63;;;9.00;99.90;;;;;;5050910;28;20173;-58
2021/12/26 00:47:08;;;;;;;21.90;11.97;;;9.00;99.90;;;;;;5050966;28;20173;-58
2021/12/26 00:49:34;;;;;;;19.47;12.13;;;9.00;99.90;;;;;;5050700;28;20175;-58
2021/12/26 00:52:00;;;;;;;23.97;12.43;;;9.00;99.90;;;;;;5051123;28;20244;-58
2021/12/26 00:54:26;;;;;;;22.53;12.43;;;9.00;99.90;;;;;;5050952;28;20162;-58
2021/12/26 00:56:52;;;;;;;22.10;12.53;;;9.00;99.90;;;;;;5050749;28;20173;-58
2021/12/26 00:59:18;;;;;;;20.53;11.40;;;9.00;99.90;;;;;;5050692;28;20295;-58
2021/12/26 01:01:44;;;;;;;20.90;12.63;;;9.00;99.90;;;;;;5050689;28;20624;-58
2021/12/26 01:04:12;;;;;;;22.37;12.10;;;9.00;99.90;;;;;;5050824;28;20181;-58
2021/12/26 01:06:38;;;;;;;25.30;12.87;;;9.00;99.90;;;;;;5051040;28;20173;-58
2021/12/26 01:09:07;;;;;;;22.43;12.63;;;9.00;99.90;;;;;;5050576;28;20718;-58
2021/12/26 01:11:42;;;;;;;20.93;11.57;;;9.00;99.90;;;;;;5050662;28;20211;-58
2021/12/26 01:14:12;;;;;;;21.70;11.73;;;9.00;99.90;;;;;;5050710;28;20234;-57
2021/12/26 01:16:39;;;;;;;21.17;11.87;;;9.10;99.90;;;;;;5050588;28;20215;-58
2021/12/26 01:19:11;;;;;;;19.77;11.47;;;9.10;99.90;;;;;;5050674;28;20193;-58
2021/12/26 01:21:37;;;;;;;23.97;11.93;;;9.10;99.90;;;;;;5050637;28;20177;-58
2021/12/26 01:24:10;;;;;;;19.93;11.63;;;9.10;99.90;;;;;;5054108;28;20176;-58
2021/12/26 01:26:37;;;;;;;22.00;12.07;;;9.10;99.90;;;;;;5054840;28;20165;-58
2021/12/26 01:29:04;;;;;;;21.83;11.70;;;9.10;99.90;;;;;;5054567;28;20242;-58
2021/12/26 01:31:30;;;;;;;19.97;11.13;;;9.10;99.90;;;;;;5054648;28;20208;-57
2021/12/26 01:34:00;;;;;;;18.00;11.30;;;9.10;99.90;;;;;;5054666;28;20177;-58
2021/12/26 01:36:30;;;;;;;20.80;11.00;;;9.10;99.90;;;;;;5054398;28;20173;-58
2021/12/26 01:38:58;;;;;;;19.13;10.57;;;9.10;99.90;;;;;;5054544;28;20168;-58
2021/12/26 01:41:25;;;;;;;18.37;10.20;;;9.30;99.90;;;;;;5054378;28;20173;-58
2021/12/26 01:43:56;;;;;;;16.83;10.07;;;9.10;99.90;;;;;;5054379;28;20219;-58
2021/12/26 01:46:24;;;;;;;17.07;10.07;;;9.10;99.90;;;;;;5054211;28;20184;-58
2021/12/26 01:49:06;;;;;;;18.03;9.60;;;9.10;99.90;;;;;;5054353;28;20161;-58
2021/12/26 01:51:32;;;;;;;15.13;8.50;;;9.10;99.90;;;;;;5054299;28;20201;-58
2021/12/26 01:54:04;;;;;;;16.50;9.70;;;9.10;99.90;;;;;;5054173;28;20710;-58
2021/12/26 01:56:29;;;;;;;15.70;9.70;;;9.10;99.90;;;;;;5054056;28;20463;-58
2021/12/26 01:58:56;;;;;;;17.43;9.83;;;9.10;99.90;;;;;;5054207;28;20177;-57
2021/12/26 02:01:23;;;;;;;13.97;8.93;;;9.10;99.90;;;;;;5054111;28;20268;-57
2021/12/26 02:03:49;;;;;;;13.47;8.53;;;9.10;99.90;;;;;;5054139;28;20170;-58
2021/12/26 02:06:15;;;;;;;17.07;9.57;;;9.00;99.90;;;;;;5054114;28;20181;-58
2021/12/26 02:08:42;;;;;;;15.50;8.87;;;9.10;99.90;;;;;;5053972;28;20177;-58
2021/12/26 02:11:08;;;;;;;15.10;9.00;;;9.10;99.90;;;;;;5053848;28;20220;-58
2021/12/26 02:13:37;;;;;;;14.23;8.80;;;9.10;99.90;;;;;;5053892;28;20178;-57
2021/12/26 02:16:04;;;;;;;18.80;9.13;;;9.10;99.90;;;;;;5053917;28;20184;-57
2021/12/26 02:18:30;;;;;;;13.23;9.03;;;9.00;99.90;;;;;;5053814;28;20166;-57
2021/12/26 02:24:19;;;;;;;14.87;9.13;;;9.10;99.90;;;;;;5054108;28;20296;-57
2021/12/26 02:29:17;;;;;;;15.03;9.43;;;9.10;99.90;;;;;;5053510;28;20258;-58
2021/12/26 02:31:43;;;;;;;16.80;9.30;;;9.10;99.90;;;;;;5053526;28;20209;-58
2021/12/26 02:34:09;;;;;;;13.53;8.90;;;9.10;99.90;;;;;;5053054;28;20177;-58
2021/12/26 02:36:35;;;;;;;17.03;10.40;;;9.20;99.90;;;;;;5053481;28;20230;-58
2021/12/26 02:39:01;;;;;;;18.27;10.43;;;9.20;99.90;;;;;;5053543;28;20162;-58
2021/12/26 02:41:27;;;;;;;19.23;10.93;;;9.30;99.90;;;;;;5053379;28;20165;-58
2021/12/26 02:43:53;;;;;;;19.93;11.10;;;9.20;99.90;;;;;;5053375;28;20256;-58
2021/12/26 02:46:19;;;;;;;20.97;11.43;;;9.20;99.90;;;;;;5053144;28;20262;-58
2021/12/26 02:48:44;;;;;;;20.73;11.87;;;9.20;99.90;;;;;;5053357;28;20303;-58
2021/12/26 02:51:10;;;;;;;19.80;11.47;;;9.20;99.90;;;;;;5053086;28;20278;-58
2021/12/26 02:53:37;;;;;;;17.63;10.93;;;9.10;99.90;;;;;;5053136;28;20252;-56
2021/12/26 02:56:04;;;;;;;19.47;10.80;;;9.20;99.90;;;;;;5053194;28;20180;-56
2021/12/26 02:58:31;;;;;;;20.00;11.77;;;9.20;99.90;;;;;;5053063;28;20269;-56
2021/12/26 03:01:18;;;;;;;21.73;11.93;;;9.30;99.90;;;;;;5053024;28;20178;-57
2021/12/26 03:03:44;;;;;;;20.53;12.57;;;9.20;99.90;;;;;;5052921;28;20184;-57
2021/12/26 03:06:40;;;;;;;18.47;11.10;;;9.20;99.90;;;;;;5052942;28;20177;-57
2021/12/26 03:09:00;;;;;;;21.83;11.83;;;9.20;99.90;;;;;;5052217;28;20173;-57
2021/12/26 03:11:26;;;;;;;21.10;11.37;;;9.20;99.90;;;;;;5052936;28;20547;-57
2021/12/26 03:13:52;;;;;;;17.97;11.03;;;9.20;99.90;;;;;;5051960;28;20184;-57
2021/12/26 03:16:18;;;;;;;17.97;10.83;;;9.30;99.90;;;;;;5051554;28;20180;-58
2021/12/26 03:18:43;;;;;;;18.30;10.17;;;9.20;99.90;;;;;;5052702;28;20181;-58
2021/12/26 03:21:09;;;;;;;14.77;10.17;;;9.30;99.90;;;;;;5052448;28;20540;-58
2021/12/26 03:23:35;;;;;;;16.33;10.03;;;9.20;99.90;;;;;;5052573;28;20637;-58
2021/12/26 03:26:05;;;;;;;17.03;9.97;;;10.70;99.90;;;;;;5052577;28;20636;-58
2021/12/26 03:28:32;;;;;;;17.03;10.17;;;9.40;99.90;;;;;;5052454;28;20225;-58
2021/12/26 03:30:59;;;;;;;14.57;9.50;;;9.30;99.90;;;;;;5052361;28;20687;-58
2021/12/26 03:33:26;;;;;;;13.60;8.90;;;9.30;99.90;;;;;;5052241;28;20174;-58
2021/12/26 03:35:52;;;;;;;15.47;9.00;;;9.30;99.90;;;;;;5052437;28;20177;-58
2021/12/26 03:38:19;;;;;;;13.33;8.20;;;9.20;99.90;;;;;;5052305;28;20184;-57
2021/12/26 03:40:46;;;;;;;12.80;8.57;;;9.30;99.90;;;;;;5052195;28;20635;-58
2021/12/26 03:43:12;;;;;;;13.07;8.53;;;9.20;99.90;;;;;;5052159;28;20178;-58
2021/12/26 03:45:41;;;;;;;16.63;8.37;;;9.20;99.90;;;;;;5051681;28;20432;-58
2021/12/26 03:48:08;;;;;;;12.20;8.07;;;9.20;99.90;;;;;;5051645;28;20551;-58
2021/12/26 03:50:38;;;;;;;13.73;8.37;;;9.20;99.90;;;;;;5052012;28;20205;-58
2021/12/26 03:53:04;;;;;;;13.50;8.00;;;9.20;99.90;;;;;;5052056;28;20189;-58
2021/12/26 03:55:30;;;;;;;12.80;8.60;;;9.20;99.90;;;;;;5051926;28;20178;-61
2021/12/26 03:57:56;;;;;;;11.47;7.53;;;9.20;99.90;;;;;;5051975;28;20177;-58
2021/12/26 04:00:24;;;;;;;14.63;8.57;;;9.20;99.90;;;;;;5052294;28;20185;-58
2021/12/26 04:02:50;;;;;;;11.80;8.13;;;9.20;99.90;;;;;;5051822;28;20297;-58
2021/12/26 04:05:16;;;;;;;14.90;8.20;;;9.20;99.90;;;;;;5051767;28;20162;-58
2021/12/26 04:07:43;;;;;;;12.13;7.73;;;9.10;99.90;;;;;;5051718;28;20173;-58
2021/12/26 04:10:10;;;;;;;11.30;7.63;;;9.10;99.90;;;;;;5051470;28;20284;-58
2021/12/26 04:12:37;;;;;;;12.83;7.90;;;9.10;99.90;;;;;;5051780;28;20173;-58
2021/12/26 04:15:08;;;;;;;14.37;7.67;;;9.10;99.90;;;;;;5051458;28;20175;-57
2021/12/26 04:17:34;;;;;;;15.13;8.33;;;9.00;99.90;;;;;;5051515;28;20646;-57
2021/12/26 04:20:00;;;;;;;15.63;8.63;;;9.20;99.90;;;;;;5051419;28;20647;-57
2021/12/26 04:22:27;;;;;;;14.03;8.57;;;9.00;99.90;;;;;;5051707;28;20177;-58
2021/12/26 04:24:53;;;;;;;15.53;8.33;;;9.00;99.90;;;;;;5051331;28;20279;-58
2021/12/26 04:27:19;;;;;;;11.37;7.97;;;8.90;99.90;;;;;;5051541;28;20211;-58
2021/12/26 04:29:45;;;;;;;17.30;9.57;;;8.90;99.90;;;;;;5051107;28;20316;-58
2021/12/26 04:32:10;;;;;;;16.47;9.33;;;8.90;99.90;;;;;;5051320;28;20207;-58
2021/12/26 04:34:36;;;;;;;14.50;9.03;;;8.90;99.90;;;;;;5051345;28;20169;-58
2021/12/26 04:37:02;;;;;;;14.60;9.07;;;8.90;99.90;;;;;;5051144;28;20165;-58
2021/12/26 04:39:28;;;;;;;15.47;9.20;;;8.90;99.90;;;;;;5051146;28;20352;-58
2021/12/26 04:41:54;;;;;;;13.80;8.80;;;8.90;99.90;;;;;;5051241;28;20559;-58
2021/12/26 04:44:23;;;;;;;14.30;8.60;;;8.90;99.90;;;;;;5051081;28;20180;-58
2021/12/26 04:46:49;;;;;;;16.00;8.50;;;8.90;99.90;;;;;;5049737;28;20165;-58
2021/12/26 04:49:15;;;;;;;13.90;8.63;;;8.90;99.90;;;;;;5051263;28;20185;-58
2021/12/26 04:51:41;;;;;;;16.73;9.43;;;8.80;99.90;;;;;;5050886;28;20228;-58
2021/12/26 04:54:07;;;;;;;15.07;8.30;;;8.90;99.90;;;;;;5051032;28;20578;-58
2021/12/26 04:56:33;;;;;;;18.20;9.57;;;8.90;99.90;;;;;;5051011;28;20611;-57
2021/12/26 04:58:59;;;;;;;18.13;9.03;;;8.90;99.90;;;;;;5050623;28;20169;-58
2021/12/26 05:01:25;;;;;;;18.67;9.90;;;8.90;99.90;;;;;;5050841;28;20199;-57
2021/12/26 05:03:51;;;;;;;20.47;9.60;;;8.90;99.90;;;;;;5050856;28;20673;-58
2021/12/26 05:06:17;;;;;;;16.07;8.97;;;8.90;99.90;;;;;;5050922;28;20175;-58
2021/12/26 05:08:42;;;;;;;15.23;8.97;;;8.90;99.90;;;;;;5050770;28;20550;-58
2021/12/26 05:11:08;;;;;;;16.13;8.37;;;8.90;99.90;;;;;;5050665;28;20574;-57
2021/12/26 05:13:34;;;;;;;15.80;8.83;;;8.90;99.90;;;;;;5050681;28;20215;-58
2021/12/26 05:16:00;;;;;;;17.80;9.07;;;8.90;99.90;;;;;;5050517;28;20173;-57
2021/12/26 05:18:26;;;;;;;15.53;8.57;;;8.90;99.90;;;;;;5049394;28;20180;-58
2021/12/26 05:20:52;;;;;;;16.20;8.57;;;8.80;99.90;;;;;;5050399;28;20184;-57
2021/12/26 05:23:18;;;;;;;16.77;8.93;;;8.70;99.90;;;;;;5050761;28;20173;-56
2021/12/26 05:25:44;;;;;;;17.30;9.30;;;8.80;99.90;;;;;;5050567;28;20663;-57
2021/12/26 05:28:10;;;;;;;16.70;9.17;;;8.70;99.90;;;;;;5050403;28;20209;-56
2021/12/26 05:30:35;;;;;;;18.73;9.70;;;8.60;99.90;;;;;;5050366;28;20575;-57
2021/12/26 05:33:01;;;;;;;19.50;9.23;;;8.60;99.90;;;;;;5050470;28;20174;-57
2021/12/26 05:35:27;;;;;;;16.73;9.27;;;8.50;99.90;;;;;;5050565;28;20195;-57
2021/12/26 05:37:54;;;;;;;21.23;10.07;;;8.50;99.90;;;;;;5050459;28;20169;-57
2021/12/26 05:40:19;;;;;;;20.87;11.30;;;8.50;99.90;;;;;;5050501;28;20201;-57
2021/12/26 05:42:45;;;;;;;22.83;10.83;;;8.50;99.90;;;;;;5050478;28;20674;-57
2021/12/26 05:45:13;;;;;;;19.83;10.20;;;8.60;99.90;;;;;;5050285;28;20563;-56
2021/12/26 05:47:39;;;;;;;22.10;11.07;;;8.40;99.90;;;;;;5050587;28;20177;-57
2021/12/26 05:50:06;;;;;;;20.90;9.83;;;8.40;99.90;;;;;;5050373;28;20192;-56
2021/12/26 05:52:32;;;;;;;23.50;11.00;;;8.30;99.90;;;;;;5050243;28;20265;-57
2021/12/26 05:54:58;;;;;;;23.93;10.27;;;8.30;99.90;;;;;;5050304;28;20650;-57
2021/12/26 05:57:24;;;;;;;24.13;10.47;;;8.30;99.90;;;;;;5050252;28;20192;-56
2021/12/26 05:59:50;;;;;;;23.47;10.73;;;8.30;99.90;;;;;;5050257;28;20168;-57
2021/12/26 06:02:16;;;;;;;26.37;10.07;;;8.20;99.90;;;;;;5050295;28;20178;-57
2021/12/26 06:04:42;;;;;;;27.57;11.33;;;8.20;99.90;;;;;;5050214;28;20193;-57
2021/12/26 06:07:08;;;;;;;24.47;11.03;;;8.20;99.90;;;;;;5050119;28;20203;-57
2021/12/26 06:09:34;;;;;;;25.23;11.40;;;8.20;99.90;;;;;;5051058;28;20262;-57
2021/12/26 06:12:00;;;;;;;24.17;11.23;;;8.20;99.90;;;;;;5053848;28;20663;-57
2021/12/26 06:14:26;;;;;;;24.87;10.87;;;8.20;99.90;;;;;;5051471;28;20177;-57
2021/12/26 06:16:52;;;;;;;25.43;10.57;;;8.20;99.90;;;;;;5053726;28;20186;-57
2021/12/26 06:19:17;;;;;;;19.53;10.40;;;8.10;99.90;;;;;;5053825;28;20165;-57
2021/12/26 06:21:43;;;;;;;29.10;11.30;;;8.10;99.90;;;;;;5053611;28;20185;-57
2021/12/26 06:24:09;;;;;;;28.40;11.10;;;8.10;99.90;;;;;;5053768;28;20165;-57
2021/12/26 06:26:35;;;;;;;24.47;11.13;;;8.00;99.90;;;;;;5053710;28;20503;-57
2021/12/26 06:29:01;;;;;;;26.47;11.63;;;8.00;99.90;;;;;;5052064;28;20225;-57
2021/12/26 06:31:27;;;;;;;24.67;10.97;;;8.10;99.90;;;;;;5053305;28;20220;-57
2021/12/26 06:33:53;;;;;;;32.43;11.60;;;8.00;99.90;;;;;;5053181;28;20682;-57
2021/12/26 06:36:19;;;;;;;32.93;12.40;;;8.00;99.90;;;;;;5053481;28;20209;-57
2021/12/26 06:38:46;;;;;;;28.10;12.03;;;8.10;99.90;;;;;;5053446;28;20200;-57
2021/12/26 06:41:12;;;;;;;35.50;13.37;;;8.10;99.90;;;;;;5053382;28;20204;-57
2021/12/26 06:43:39;;;;;;;36.93;13.00;;;8.10;99.90;;;;;;5053267;28;20693;-57
2021/12/26 06:46:06;;;;;;;50.43;13.57;;;8.10;99.90;;;;;;5053368;28;20180;-57
2021/12/26 06:48:32;;;;;;;42.17;14.30;;;8.10;99.90;;;;;;5053321;28;20184;-57
2021/12/26 06:50:58;;;;;;;51.23;15.33;;;8.10;99.90;;;;;;5053093;28;20206;-56
2021/12/26 06:53:24;;;;;;;51.97;15.87;;;8.10;99.90;;;;;;5053057;28;20169;-56
2021/12/26 06:55:50;;;;;;;199.80;19.80;;;9.00;99.90;;;;;;5053102;28;20238;-56
2021/12/26 06:58:16;;;;;;;117.17;16.27;;;8.30;99.90;;;;;;5052937;28;20655;-57
2021/12/26 07:00:43;;;;;;;35.67;13.80;;;8.20;99.90;;;;;;5053085;28;20173;-56
2021/12/26 07:03:09;;;;;;;67.97;13.27;;;8.10;99.90;;;;;;5053123;28;20208;-56
2021/12/26 07:05:35;;;;;;;51.77;13.10;;;8.10;99.90;;;;;;5052890;28;20215;-57
2021/12/26 07:08:01;;;;;;;53.73;12.83;;;8.10;99.90;;;;;;5052876;28;20177;-57
2021/12/26 07:10:27;;;;;;;126.03;13.60;;;8.00;99.90;;;;;;5052674;28;20212;-57
2021/12/26 07:12:53;;;;;;;77.33;11.80;;;8.00;99.90;;;;;;5052811;28;20276;-56
2021/12/26 07:15:19;;;;;;;96.23;11.97;;;7.90;99.90;;;;;;5052822;28;20169;-56
2021/12/26 07:17:45;;;;;;;155.97;13.90;;;7.90;99.90;;;;;;5052733;28;20161;-56
2021/12/26 07:20:14;;;;;;;48.10;11.40;;;7.80;99.90;;;;;;5052474;28;20564;-56
2021/12/26 07:22:40;;;;;;;588.77;24.20;;;7.80;99.90;;;;;;5052541;28;20181;-56
2021/12/26 07:25:07;;;;;;;36.07;10.60;;;6.50;99.90;;;;;;5052463;28;20192;-56
2021/12/26 07:27:33;;;;;;;74.07;11.80;;;7.70;99.90;;;;;;5052463;28;20194;-56
2021/12/26 07:30:02;;;;;;;56.87;10.63;;;7.70;99.90;;;;;;5052103;28;20224;-56
2021/12/26 07:32:29;;;;;;;35.80;11.27;;;7.70;99.90;;;;;;5052372;28;20223;-56
2021/12/26 07:35:00;;;;;;;43.37;11.00;;;7.60;99.90;;;;;;5052390;28;20165;-56
2021/12/26 07:37:27;;;;;;;37.73;11.60;;;7.60;99.90;;;;;;5052363;28;20659;-57
2021/12/26 07:39:53;;;;;;;33.80;11.80;;;7.60;99.90;;;;;;5052356;28;20165;-57
2021/12/26 07:42:19;;;;;;;32.40;11.37;;;7.70;99.90;;;;;;5052265;28;20231;-57
2021/12/26 07:44:45;;;;;;;32.53;11.80;;;7.70;99.90;;;;;;5052181;28;20169;-56
2021/12/26 07:47:11;;;;;;;45.60;11.87;;;7.70;99.90;;;;;;5052134;28;20170;-56
2021/12/26 07:49:37;;;;;;;34.53;10.97;;;7.70;99.90;;;;;;5052120;28;20689;-56
2021/12/26 07:52:11;;;;;;;197.33;13.97;;;7.70;99.90;;;;;;5052000;28;20223;-56
2021/12/26 07:54:37;;;;;;;126.67;12.63;;;7.70;99.90;;;;;;5051845;28;20256;-57
2021/12/26 07:57:06;;;;;;;137.20;13.13;;;7.70;99.90;;;;;;5051916;28;20174;-56
2021/12/26 07:59:31;;;;;;;80.67;11.33;;;7.70;99.90;;;;;;5052103;28;20173;-56
2021/12/26 08:01:57;;;;;;;116.67;10.93;;;7.70;99.90;;;;;;5051946;28;20620;-56
2021/12/26 08:04:23;;;;;;;214.33;12.03;;;7.70;99.90;;;;;;5051734;28;20252;-57
2021/12/26 08:06:49;;;;;;;104.40;10.53;;;7.70;99.90;;;;;;5051738;28;20177;-56
2021/12/26 08:09:14;;;;;;;102.73;10.73;;;7.70;99.90;;;;;;5051691;28;20173;-56
2021/12/26 08:11:41;;;;;;;141.30;12.23;;;;;;;;;;5051556;28;20216;-57
2021/12/26 08:14:06;;;;;;;189.63;13.67;;;7.60;99.90;;;;;;5051785;28;20195;-56
2021/12/26 08:16:32;;;;;;;146.20;13.13;;;7.70;99.90;;;;;;5051474;28;20682;-57
2021/12/26 08:18:58;;;;;;;89.03;12.37;;;7.70;99.90;;;;;;5051618;28;20567;-56
2021/12/26 08:21:24;;;;;;;174.17;13.07;;;7.70;99.90;;;;;;5051394;28;20580;-56
2021/12/26 08:23:50;;;;;;;75.63;11.30;;;7.60;99.90;;;;;;5051491;28;20177;-57
2021/12/26 08:26:16;;;;;;;65.03;11.37;;;7.70;99.90;;;;;;5051415;28;20177;-57
2021/12/26 08:28:42;;;;;;;199.67;16.43;;;7.80;99.90;;;;;;5051182;28;20292;-56
2021/12/26 08:31:10;;;;;;;63.77;11.87;;;7.80;99.90;;;;;;5051256;28;20295;-56
2021/12/26 08:33:36;;;;;;;40.50;11.53;;;7.80;99.90;;;;;;5050928;28;20708;-57
2021/12/26 08:36:03;;;;;;;65.40;11.60;;;7.80;99.90;;;;;;5051122;28;20173;-57
2021/12/26 08:38:29;;;;;;;41.13;11.13;;;7.80;99.90;;;;;;5051444;28;20201;-56
2021/12/26 08:40:56;;;;;;;37.93;12.07;;;7.90;99.90;;;;;;5050983;28;20585;-57
2021/12/26 08:43:22;;;;;;;51.23;11.30;;;7.90;99.90;;;;;;5051233;28;20200;-57
2021/12/26 08:45:49;;;;;;;74.93;12.80;;;7.90;99.90;;;;;;5051097;28;20169;-58
2021/12/26 08:48:15;;;;;;;42.83;11.20;;;7.90;99.90;;;;;;5050929;28;20506;-58
2021/12/26 08:50:42;;;;;;;27.63;10.57;;;7.90;99.90;;;;;;5050894;28;20213;-57
2021/12/26 08:53:09;;;;;;;77.37;11.73;;;7.90;99.90;;;;;;5050805;28;20169;-57
2021/12/26 08:55:35;;;;;;;38.70;11.10;;;8.00;99.90;;;;;;5051201;28;20187;-57
2021/12/26 08:58:01;;;;;;;46.10;10.87;;;9.40;99.90;;;;;;5050734;28;20200;-57
2021/12/26 09:00:29;;;;;;;65.13;11.27;;;7.90;99.90;;;;;;5050922;28;20188;-58
2021/12/26 09:02:55;;;;;;;25.60;10.50;;;7.90;99.90;;;;;;5050769;28;20628;-58
2021/12/26 09:05:21;;;;;;;35.23;10.87;;;7.90;99.90;;;;;;5050657;28;20260;-58
2021/12/26 09:07:47;;;;;;;34.33;11.17;;;7.90;99.90;;;;;;5050811;28;20277;-57
2021/12/26 09:10:14;;;;;;;35.90;12.17;;;8.00;99.90;;;;;;5050584;28;20705;-57
2021/12/26 09:12:41;;;;;;;77.07;12.47;;;8.00;99.90;;;;;;5050599;28;20188;-58
2021/12/26 09:15:09;;;;;;;162.43;13.43;;;8.00;99.90;;;;;;5050714;28;20174;-58
2021/12/26 09:17:35;;;;;;;247.87;15.23;;;7.90;99.90;;;;;;5050634;28;20177;-57
2021/12/26 09:20:01;;;;;;;108.93;11.23;;;7.90;99.90;;;;;;5050696;28;20173;-57
2021/12/26 09:22:27;;;;;;;156.63;11.80;;;7.90;99.90;;;;;;5050663;28;20174;-57
2021/12/26 09:24:52;;;;;;;186.57;13.03;;;8.00;99.90;;;;;;5050489;28;20177;-57
2021/12/26 09:27:19;;;;;;;134.43;13.23;;;8.00;99.90;;;;;;5050657;28;20260;-58
2021/12/26 09:29:45;;;;;;;98.10;12.43;;;8.10;99.90;;;;;;5050418;28;20338;-58
2021/12/26 09:32:11;;;;;;;71.43;11.17;;;8.00;99.90;;;;;;5049015;28;20232;-58
2021/12/26 09:34:37;;;;;;;51.13;11.40;;;8.20;99.90;;;;;;5050377;28;20177;-57
2021/12/26 09:37:08;;;;;;;898.63;35.70;;;8.20;99.90;;;;;;5050406;28;20184;-58
2021/12/26 09:39:34;;;;;;;88.60;12.07;;;8.30;99.90;;;;;;5050407;28;20169;-58
2021/12/26 09:42:00;;;;;;;105.53;11.57;;;8.30;99.90;;;;;;5050416;28;20235;-58
2021/12/26 09:44:26;;;;;;;42.73;11.70;;;8.30;99.90;;;;;;5051225;28;20171;-57
2021/12/26 09:46:52;;;;;;;36.07;11.90;;;8.30;99.90;;;;;;5054378;28;20169;-57
2021/12/26 09:49:19;;;;;;;41.10;12.20;;;8.30;99.90;;;;;;5054252;28;20617;-58
2021/12/26 09:51:45;;;;;;;28.43;10.87;;;8.40;99.90;;;;;;5054501;28;20267;-61
2021/12/26 09:54:11;;;;;;;18.93;11.20;;;8.40;99.90;;;;;;5054498;28;20201;-58
2021/12/26 09:56:37;;;;;;;19.27;11.27;;;8.40;99.90;;;;;;5054276;28;20173;-58
2021/12/26 09:59:14;;;;;;;1999.90;221.87;;;8.60;99.90;;;;;;5054260;28;20177;-57
2021/12/26 10:01:45;;;;;;;153.40;15.07;;;8.60;99.90;;;;;;5054010;28;20690;-57
2021/12/26 10:04:26;;;;;;;18.33;9.73;;;8.70;99.90;;;;;;5054114;28;20296;-58
2021/12/26 10:07:03;;;;;;;19.17;10.37;;;8.90;99.90;;;;;;5054058;28;20161;-58
2021/12/26 10:09:30;;;;;;;16.00;9.73;;;9.00;99.90;;;;;;5053962;28;20234;-58
2021/12/26 10:11:58;;;;;;;20.13;10.13;;;9.00;99.90;;;;;;5054187;28;20266;-58
2021/12/26 10:14:33;;;;;;;14.23;9.03;;;9.00;99.90;;;;;;5053876;28;20165;-58
2021/12/26 10:17:12;;;;;;;1313.77;58.17;;;8.90;99.90;;;;;;5053841;28;20639;-58
2021/12/26 10:19:48;;;;;;;131.67;16.60;;;8.90;99.90;;;;;;5053603;28;20246;-58
2021/12/26 10:22:17;;;;;;;19.67;12.33;;;8.80;99.90;;;;;;5053611;28;20177;-58
2021/12/26 10:24:49;;;;;;;32.27;13.73;;;8.90;99.90;;;;;;5053483;28;20181;-57
2021/12/26 10:27:26;;;;;;;28.80;13.83;;;9.10;99.90;;;;;;5053619;28;20260;-58
2021/12/26 10:29:55;;;;;;;23.80;13.97;;;9.30;99.90;;;;;;5053508;28;20252;-58
2021/12/26 10:32:41;;;;;;;26.37;14.50;;;9.30;99.90;;;;;;5053568;28;20644;-58
2021/12/26 10:35:11;;;;;;;26.50;14.97;;;9.30;99.90;;;;;;5052008;28;20182;-58
2021/12/26 10:37:45;;;;;;;30.20;14.43;;;9.40;99.90;;;;;;5053274;28;20216;-58
2021/12/26 10:40:12;;;;;;;15.47;9.90;;;9.50;99.90;;;;;;5053337;28;20185;-58
2021/12/26 10:42:43;;;;;;;14.80;10.00;;;9.70;99.90;;;;;;5053257;28;20193;-58
2021/12/26 10:45:09;;;;;;;17.43;10.43;;;9.90;99.90;;;;;;5053256;28;20227;-58
2021/12/26 10:47:36;;;;;;;20.30;11.27;;;9.90;99.90;;;;;;5053243;28;20234;-58
2021/12/26 10:50:07;;;;;;;17.37;10.47;;;9.90;99.90;;;;;;5052987;28;20173;-58
2021/12/26 10:52:36;;;;;;;19.97;11.03;;;9.90;99.90;;;;;;5052992;28;20221;-58
2021/12/26 10:55:12;;;;;;;16.07;10.93;;;10.00;99.90;;;;;;5052618;28;20226;-58
2021/12/26 10:57:49;;;;;;;17.57;11.43;;;10.00;99.90;;;;;;5052953;28;20176;-57
2021/12/26 11:00:17;;;;;;;19.40;11.20;;;10.00;99.90;;;;;;5053013;28;20218;-58
2021/12/26 11:02:51;;;;;;;26.30;12.10;;;10.00;99.90;;;;;;5052942;28;20200;-58
2021/12/26 11:05:28;;;;;;;16.87;9.83;;;10.10;99.90;;;;;;5052810;28;20285;-58
2021/12/26 11:08:00;;;;;;;17.73;10.60;;;10.20;99.90;;;;;;5052807;28;20169;-58
2021/12/26 11:10:32;;;;;;;15.57;9.57;;;10.20;99.90;;;;;;5052659;28;20211;-58
2021/12/26 11:13:02;;;;;;;15.20;10.67;;;10.30;99.90;;;;;;5052815;28;20248;-58
2021/12/26 11:15:31;;;;;;;15.13;10.27;;;10.30;99.90;;;;;;5052716;28;20215;-58
2021/12/26 11:18:01;;;;;;;16.93;10.70;;;10.40;99.90;;;;;;5052751;28;20177;-58
2021/12/26 11:20:38;;;;;;;13.97;10.03;;;10.50;99.90;;;;;;5052590;28;20174;-58
2021/12/26 11:23:10;;;;;;;14.40;10.30;;;10.80;99.90;;;;;;5052494;28;20647;-58
2021/12/26 11:25:50;;;;;;;15.33;10.40;;;10.80;99.90;;;;;;5052692;28;20176;-58
2021/12/26 11:28:17;;;;;;;17.67;11.07;;;11.30;99.90;;;;;;5052393;28;20300;-58
2021/12/26 11:30:44;;;;;;;15.77;10.57;;;11.20;99.90;;;;;;5052213;28;20311;-58
2021/12/26 11:33:12;;;;;;;18.03;11.07;;;11.60;99.90;;;;;;5052373;28;20169;-58
2021/12/26 11:35:40;;;;;;;19.20;11.03;;;11.70;99.90;;;;;;5052147;28;20172;-58
2021/12/26 11:38:13;;;;;;;17.10;10.03;;;11.90;99.90;;;;;;5051906;28;20651;-58
2021/12/26 11:40:41;;;;;;;15.35;9.93;;;12.10;99.90;;;;;;5052330;28;20184;-58
2021/12/26 11:43:24;;;;;;;16.73;9.30;;;12.00;99.90;;;;;;5052046;28;20260;-58
2021/12/26 11:46:15;;;;;;;13.53;7.37;;;11.70;99.90;;;;;;5052032;28;20239;-58
2021/12/26 11:48:59;;;;;;;10.10;6.05;;;11.70;99.90;;;;;;5052105;28;20405;-58
2021/12/26 11:51:33;;;;;;;9.03;3.83;;;12.00;99.90;;;;;;5051910;28;20250;-58
2021/12/26 11:54:33;;;;;;;5.60;2.70;;;12.40;99.90;;;;;;5051882;28;20173;-58
2021/12/26 11:57:17;;;;;;;8.00;2.85;;;12.50;99.90;;;;;;5052016;28;20222;-58
2021/12/26 12:00:12;;;;;;;8.07;2.78;;;12.50;99.90;;;;;;5051892;28;20176;-58
2021/12/26 12:02:50;;;;;;;8.90;3.33;;;12.20;99.90;;;;;;5051859;28;20177;-58
2021/12/26 12:05:26;;;;;;;10.23;3.07;;;11.80;99.90;;;;;;5051748;28;20196;-58
2021/12/26 12:07:58;;;;;;;10.00;3.60;;;12.20;99.90;;;;;;5050778;28;20207;-58
2021/12/26 12:10:33;;;;;;;8.90;3.70;;;12.00;99.90;;;;;;5051693;28;20243;-58
2021/12/26 12:12:59;;;;;;;9.37;3.60;;;12.00;99.90;;;;;;5051536;28;20165;-58
2021/12/26 12:15:48;;;;;;;11.00;2.60;;;12.00;99.90;;;;;;5051578;28;20213;-58
2021/12/26 12:18:29;;;;;;;7.43;3.00;;;12.00;99.90;;;;;;5051392;28;20169;-58
2021/12/26 12:21:09;;;;;;;9.17;2.47;;;11.90;99.90;;;;;;5051337;28;20169;-57
2021/12/26 12:23:39;;;;;;;7.90;2.07;;;12.10;99.90;;;;;;5051444;28;20306;-56
2021/12/26 12:26:05;;;;;;;11.48;3.03;;;13.00;99.90;;;;;;5051686;28;20185;-57
2021/12/26 12:28:33;;;;;;;7.03;2.40;;;14.20;99.90;;;;;;5051103;28;20628;-57
2021/12/26 12:31:08;;;;;;;5.47;2.22;;;15.00;99.90;;;;;;5051151;28;20284;-57
2021/12/26 12:33:36;;;;;;;4.97;1.88;;;16.10;99.90;;;;;;5051058;28;20164;-57
2021/12/26 12:36:08;;;;;;;7.25;2.35;;;17.30;99.90;;;;;;5051199;28;20228;-58
2021/12/26 12:38:40;;;;;;;6.60;2.22;;;18.00;99.90;;;;;;5051153;28;20281;-59
2021/12/26 12:41:32;;;;;;;8.10;2.20;;;18.00;99.90;;;;;;5050974;28;20174;-59
2021/12/26 12:44:01;;;;;;;7.85;1.77;;;18.50;99.90;;;;;;5050882;28;20191;-59
2021/12/26 12:46:28;;;;;;;6.40;1.70;;;18.60;99.90;;;;;;5050890;28;20195;-59
2021/12/26 12:49:00;;;;;;;4.25;1.50;;;18.30;99.90;;;;;;5050870;28;20191;-58